Time;durP1;ratioP1;P1;durP2;ratioP2;P2;SDS_P1;SDS_P2;PMS_P1;PMS_P2;Temp;Humidity;BMP_temperature;BMP_pressure;BME280_temperature;BME280_humidity;BME280_pressure;Samples;Min_cycle;Max_cycle;Signal;HPM_P1;HPM_P2
2021/01/11 00:02:01;;;;;;;12.93;11.02;;;3.10;99.90;;;;;;5065508;28;20348;-76
2021/01/11 00:04:28;;;;;;;13.00;10.30;;;3.10;99.90;;;;;;5061267;28;20670;-80
2021/01/11 00:06:55;;;;;;;14.95;12.20;;;3.10;99.90;;;;;;5070277;28;20198;-77
2021/01/11 00:09:21;;;;;;;16.77;11.88;;;3.00;99.90;;;;;;5063131;28;20194;-78
2021/01/11 00:11:49;;;;;;;13.25;11.07;;;3.00;99.90;;;;;;5067503;28;20643;-77
2021/01/11 00:14:15;;;;;;;14.88;11.60;;;3.00;99.90;;;;;;5067178;28;20473;-76
2021/01/11 00:16:42;;;;;;;21.85;13.50;;;3.00;99.90;;;;;;5061708;28;20486;-77
2021/01/11 00:19:09;;;;;;;20.27;12.98;;;3.00;99.90;;;;;;5067027;28;20185;-77
2021/01/11 00:21:35;;;;;;;15.38;13.50;;;2.90;99.90;;;;;;5069407;28;20266;-79
2021/01/11 00:24:01;;;;;;;16.70;12.40;;;2.90;99.90;;;;;;5062785;28;20221;-77
2021/01/11 00:26:28;;;;;;;16.52;14.27;;;3.00;99.90;;;;;;5061100;28;20196;-78
2021/01/11 00:28:54;;;;;;;21.67;14.23;;;2.90;99.90;;;;;;5065999;28;20194;-77
2021/01/11 00:31:22;;;;;;;17.80;12.85;;;2.90;99.90;;;;;;5062197;28;20286;-77
2021/01/11 00:33:53;;;;;;;16.02;11.93;;;3.00;99.90;;;;;;5066347;28;20708;-77
2021/01/11 00:36:20;;;;;;;16.98;13.18;;;2.90;99.90;;;;;;5066415;28;20557;-77
2021/01/11 00:38:47;;;;;;;16.48;14.30;;;2.90;99.90;;;;;;5066190;28;20203;-76
2021/01/11 00:41:18;;;;;;;17.77;13.68;;;2.90;99.90;;;;;;5058378;28;20195;-77
2021/01/11 00:43:44;;;;;;;25.40;13.80;;;3.00;99.90;;;;;;5061512;28;20234;-77
2021/01/11 00:46:11;;;;;;;17.70;13.60;;;3.00;99.90;;;;;;5063621;28;20256;-77
2021/01/11 00:48:37;;;;;;;15.35;12.07;;;2.90;99.90;;;;;;5058087;28;20211;-77
2021/01/11 00:51:07;;;;;;;18.23;12.80;;;2.90;99.90;;;;;;5068258;28;20196;-76
2021/01/11 00:53:35;;;;;;;14.68;12.15;;;2.90;99.90;;;;;;5059085;28;20229;-76
2021/01/11 00:56:01;;;;;;;17.35;13.10;;;2.90;99.90;;;;;;5056195;28;20220;-78
2021/01/11 00:58:27;;;;;;;19.05;14.00;;;2.90;99.90;;;;;;5063076;28;20452;-77
2021/01/11 01:00:54;;;;;;;19.70;13.68;;;2.90;99.90;;;;;;5065513;28;20181;-77
2021/01/11 01:03:20;;;;;;;18.75;13.65;;;2.90;99.90;;;;;;5062926;28;20219;-77
2021/01/11 01:05:46;;;;;;;17.80;12.95;;;3.00;99.90;;;;;;5055307;28;20217;-77
2021/01/11 01:08:14;;;;;;;14.60;11.75;;;2.90;99.90;;;;;;5065839;28;20223;-77
2021/01/11 01:10:40;;;;;;;17.10;12.75;;;3.00;99.90;;;;;;5064128;28;20203;-77
2021/01/11 01:13:06;;;;;;;17.77;13.57;;;3.00;99.90;;;;;;5062544;28;20405;-77
2021/01/11 01:15:33;;;;;;;20.88;14.07;;;3.00;99.90;;;;;;5063694;28;20310;-76
2021/01/11 01:18:00;;;;;;;18.17;14.40;;;3.00;99.90;;;;;;5067470;28;20205;-77
2021/01/11 01:20:26;;;;;;;22.58;15.45;;;3.00;99.90;;;;;;5058036;28;20660;-76
2021/01/11 01:22:52;;;;;;;23.33;16.05;;;3.00;99.90;;;;;;5054337;28;20259;-79
2021/01/11 01:25:20;;;;;;;22.42;16.38;;;3.00;99.90;;;;;;5059347;28;20524;-77
2021/01/11 01:27:47;;;;;;;22.50;16.92;;;3.00;99.90;;;;;;5068431;28;20195;-77
2021/01/11 01:30:14;;;;;;;23.00;15.98;;;3.00;99.90;;;;;;5068126;28;20358;-77
2021/01/11 01:32:41;;;;;;;24.00;16.33;;;3.00;99.90;;;;;;5060699;28;20197;-77
2021/01/11 01:35:08;;;;;;;18.70;15.75;;;3.00;99.90;;;;;;5062568;28;20220;-77
2021/01/11 01:37:35;;;;;;;23.30;16.27;;;3.10;99.90;;;;;;5062016;28;20198;-76
2021/01/11 01:40:01;;;;;;;22.02;16.85;;;3.10;99.90;;;;;;5064285;28;20191;-76
2021/01/11 01:42:28;;;;;;;24.73;16.98;;;3.10;99.90;;;;;;5063730;28;20207;-79
2021/01/11 01:44:55;;;;;;;21.95;17.77;;;3.10;99.90;;;;;;5070032;28;20199;-76
2021/01/11 01:47:21;;;;;;;21.30;17.08;;;3.10;99.90;;;;;;5056898;28;20199;-77
2021/01/11 01:49:48;;;;;;;23.52;16.85;;;3.10;99.90;;;;;;5053819;28;20604;-77
2021/01/11 01:52:15;;;;;;;22.90;14.32;;;3.10;99.90;;;;;;5068583;28;20615;-78
2021/01/11 01:54:42;;;;;;;22.48;16.52;;;3.10;99.90;;;;;;5062963;28;20689;-79
2021/01/11 01:57:08;;;;;;;23.50;17.08;;;3.10;99.90;;;;;;5061951;28;20193;-78
2021/01/11 01:59:36;;;;;;;25.02;16.10;;;3.10;99.90;;;;;;5065655;28;20199;-77
2021/01/11 02:02:03;;;;;;;23.25;17.08;;;3.10;99.90;;;;;;5060843;28;20199;-78
2021/01/11 02:04:30;;;;;;;20.70;15.27;;;3.20;99.90;;;;;;5062887;28;20204;-77
2021/01/11 02:07:00;;;;;;;22.10;16.27;;;3.20;99.90;;;;;;5068058;28;20194;-77
2021/01/11 02:09:37;;;;;;;24.35;17.85;;;3.20;99.90;;;;;;5065523;28;20199;-76
2021/01/11 02:12:10;;;;;;;19.02;16.10;;;3.20;99.90;;;;;;5060367;28;20458;-78
2021/01/11 02:14:49;;;;;;;24.42;16.95;;;3.20;99.90;;;;;;5057405;28;20227;-77
2021/01/11 02:17:19;;;;;;;24.27;15.77;;;3.20;99.90;;;;;;5061379;28;20227;-76
2021/01/11 02:20:27;;;;;;;23.55;16.70;;;3.20;99.90;;;;;;5062987;28;20257;-77
2021/01/11 02:23:11;;;;;;;19.15;15.23;;;3.20;99.90;;;;;;5059012;28;20192;-76
2021/01/11 02:25:42;;;;;;;25.88;16.90;;;3.30;99.90;;;;;;5051318;28;20234;-76
2021/01/11 02:28:28;;;;;;;21.00;15.80;;;3.20;99.90;;;;;;5059698;28;20224;-79
2021/01/11 02:30:59;;;;;;;22.52;15.93;;;3.30;99.90;;;;;;5069970;28;20200;-77
2021/01/11 02:33:27;;;;;;;21.00;16.80;;;3.30;99.90;;;;;;5065553;28;20196;-77
2021/01/11 02:36:05;;;;;;;21.85;15.73;;;3.20;99.90;;;;;;5057851;28;20362;-79
2021/01/11 02:38:32;;;;;;;21.95;15.02;;;3.30;99.90;;;;;;5062054;28;20252;-79
2021/01/11 02:40:59;;;;;;;18.23;14.05;;;3.30;99.90;;;;;;5065088;28;20694;-77
2021/01/11 02:43:26;;;;;;;19.35;15.30;;;3.30;99.90;;;;;;5057195;28;20196;-78
2021/01/11 02:45:52;;;;;;;24.52;15.25;;;3.30;99.90;;;;;;5063417;28;20666;-77
2021/01/11 02:48:23;;;;;;;18.15;15.30;;;3.20;99.90;;;;;;5059565;28;20227;-77
2021/01/11 02:51:06;;;;;;;22.23;16.85;;;3.20;99.90;;;;;;5066917;28;20199;-79
2021/01/11 02:53:42;;;;;;;25.52;16.95;;;3.20;99.90;;;;;;5066554;28;20265;-77
2021/01/11 02:56:13;;;;;;;23.42;17.45;;;3.20;99.90;;;;;;5057448;28;20223;-77
2021/01/11 02:59:14;;;;;;;28.42;18.45;;;3.20;99.90;;;;;;5066699;28;20192;-77
2021/01/11 03:01:48;;;;;;;26.25;17.13;;;3.20;99.90;;;;;;5040147;28;20224;-76
2021/01/11 03:04:23;;;;;;;24.58;18.08;;;3.20;99.90;;;;;;5073545;28;20238;-77
2021/01/11 03:06:57;;;;;;;26.13;19.08;;;3.20;99.90;;;;;;5066490;28;20208;-79
2021/01/11 03:09:24;;;;;;;28.85;18.98;;;3.20;99.90;;;;;;5063270;28;20190;-77
2021/01/11 03:11:51;;;;;;;31.77;21.25;;;3.20;99.90;;;;;;5062970;28;20280;-77
2021/01/11 03:14:18;;;;;;;28.25;19.40;;;3.20;99.90;;;;;;5071028;28;20203;-77
2021/01/11 03:16:44;;;;;;;24.67;17.92;;;3.20;99.90;;;;;;5061344;28;20257;-77
2021/01/11 03:19:11;;;;;;;26.75;19.02;;;3.20;99.90;;;;;;5074392;28;20203;-77
2021/01/11 03:21:40;;;;;;;33.55;21.05;;;3.20;99.90;;;;;;5067269;28;20218;-79
2021/01/11 03:24:07;;;;;;;30.35;19.50;;;3.20;99.90;;;;;;5069251;28;20296;-77
2021/01/11 03:26:33;;;;;;;30.63;20.27;;;3.20;99.90;;;;;;5063283;28;20196;-76
2021/01/11 03:29:00;;;;;;;33.42;23.00;;;3.20;99.90;;;;;;5069480;28;20202;-76
2021/01/11 03:31:26;;;;;;;32.05;20.70;;;3.20;99.90;;;;;;5066259;28;20216;-78
2021/01/11 03:33:52;;;;;;;37.58;20.95;;;3.20;99.90;;;;;;5062962;28;20255;-79
2021/01/11 03:36:19;;;;;;;31.90;20.67;;;3.20;99.90;;;;;;5071677;28;20220;-77
2021/01/11 03:38:47;;;;;;;27.20;20.13;;;3.20;99.90;;;;;;5062172;28;20194;-78
2021/01/11 03:41:14;;;;;;;35.30;21.48;;;3.10;99.90;;;;;;5058117;28;20669;-78
2021/01/11 03:43:42;;;;;;;30.20;20.27;;;3.10;99.90;;;;;;5073309;28;20191;-76
2021/01/11 03:46:09;;;;;;;29.83;21.15;;;3.10;99.90;;;;;;5067876;28;20199;-77
2021/01/11 03:48:36;;;;;;;28.58;20.35;;;3.10;99.90;;;;;;5066848;28;20199;-77
2021/01/11 03:51:03;;;;;;;37.50;20.92;;;3.10;99.90;;;;;;5062725;28;20200;-77
2021/01/11 03:53:29;;;;;;;32.83;20.27;;;3.10;99.90;;;;;;5066305;28;20207;-77
2021/01/11 03:55:57;;;;;;;30.23;21.52;;;3.10;99.90;;;;;;5070769;28;20293;-77
2021/01/11 03:58:23;;;;;;;28.42;18.58;;;3.10;99.90;;;;;;5061141;28;20235;-76
2021/01/11 04:00:50;;;;;;;28.42;21.15;;;3.10;99.90;;;;;;5064829;28;20195;-77
2021/01/11 04:03:16;;;;;;;28.65;18.17;;;3.20;99.90;;;;;;5065720;28;20231;-76
2021/01/11 04:05:44;;;;;;;28.23;20.40;;;3.20;99.90;;;;;;5068662;28;20288;-77
2021/01/11 04:08:10;;;;;;;25.00;19.08;;;3.20;99.90;;;;;;5070592;28;20204;-77
2021/01/11 04:10:37;;;;;;;32.13;20.35;;;3.20;99.90;;;;;;5068968;28;20236;-77
2021/01/11 04:13:05;;;;;;;34.80;19.67;;;3.20;99.90;;;;;;5067401;28;20191;-76
2021/01/11 04:15:31;;;;;;;30.13;20.52;;;3.20;99.90;;;;;;5059502;28;20206;-77
2021/01/11 04:17:58;;;;;;;29.83;19.77;;;3.20;99.90;;;;;;5061830;28;20706;-79
2021/01/11 04:20:24;;;;;;;27.08;21.80;;;3.20;99.90;;;;;;5068291;28;20210;-77
2021/01/11 04:22:51;;;;;;;26.10;19.52;;;3.20;99.90;;;;;;5065406;28;20823;-77
2021/01/11 04:25:17;;;;;;;34.45;21.50;;;3.20;99.90;;;;;;5064339;28;20251;-77
2021/01/11 04:27:44;;;;;;;26.40;19.52;;;3.20;99.90;;;;;;5058521;28;20194;-78
2021/01/11 04:30:12;;;;;;;27.40;20.67;;;3.20;99.90;;;;;;5065192;28;20200;-77
2021/01/11 04:32:39;;;;;;;26.38;19.60;;;3.20;99.90;;;;;;5068011;28;20196;-77
2021/01/11 04:35:08;;;;;;;31.42;21.17;;;3.20;99.90;;;;;;5065276;28;20241;-77
2021/01/11 04:37:34;;;;;;;34.17;22.95;;;3.20;99.90;;;;;;5061732;28;20195;-76
2021/01/11 04:40:01;;;;;;;30.38;21.50;;;3.20;99.90;;;;;;5062630;28;20584;-77
2021/01/11 04:42:29;;;;;;;26.73;19.10;;;3.20;99.90;;;;;;5066671;28;20188;-78
2021/01/11 04:44:56;;;;;;;29.38;20.27;;;3.20;99.90;;;;;;5066798;28;20195;-76
2021/01/11 04:47:25;;;;;;;31.95;22.00;;;3.20;99.90;;;;;;5064442;28;20225;-79
2021/01/11 04:49:53;;;;;;;28.00;21.33;;;3.20;99.90;;;;;;5052584;28;20200;-77
2021/01/11 04:52:20;;;;;;;29.95;21.20;;;3.20;99.90;;;;;;5065958;28;20195;-77
2021/01/11 04:54:49;;;;;;;35.75;22.98;;;3.30;99.90;;;;;;5063324;28;20806;-78
2021/01/11 04:57:16;;;;;;;32.13;20.55;;;3.30;99.90;;;;;;5060823;28;20202;-77
2021/01/11 04:59:49;;;;;;;31.23;21.65;;;3.30;99.90;;;;;;5056637;28;20193;-77
2021/01/11 05:02:21;;;;;;;31.42;19.00;;;3.30;99.90;;;;;;5054373;28;20679;-77
2021/01/11 05:04:49;;;;;;;30.45;19.40;;;3.30;99.90;;;;;;5060181;28;20220;-77
2021/01/11 05:07:17;;;;;;;26.33;19.90;;;3.30;99.90;;;;;;5068441;28;20209;-77
2021/01/11 05:09:45;;;;;;;31.17;22.20;;;3.30;99.90;;;;;;5068233;28;20203;-77
2021/01/11 05:12:13;;;;;;;31.13;21.70;;;3.30;99.90;;;;;;5061603;28;20558;-76
2021/01/11 05:14:40;;;;;;;36.53;23.85;;;3.30;99.90;;;;;;5058010;28;20713;-77
2021/01/11 05:17:06;;;;;;;30.52;21.70;;;3.30;99.90;;;;;;5067109;28;20646;-77
2021/01/11 05:19:33;;;;;;;29.20;22.45;;;3.30;99.90;;;;;;5068465;28;20259;-78
2021/01/11 05:22:00;;;;;;;30.98;22.95;;;3.30;99.90;;;;;;5062665;28;20204;-77
2021/01/11 05:24:35;;;;;;;32.22;22.90;;;3.30;99.90;;;;;;5060147;28;20253;-77
2021/01/11 05:27:03;;;;;;;31.67;21.83;;;3.30;99.90;;;;;;5074765;28;20670;-78
2021/01/11 05:29:29;;;;;;;30.00;21.25;;;3.40;99.90;;;;;;5065601;28;20197;-77
2021/01/11 05:31:58;;;;;;;28.75;21.25;;;3.40;99.90;;;;;;5060230;28;20207;-75
2021/01/11 05:34:24;;;;;;;30.48;22.15;;;3.30;99.90;;;;;;5067385;28;20269;-77
2021/01/11 05:36:51;;;;;;;28.88;21.60;;;3.40;99.90;;;;;;5055169;28;20673;-76
2021/01/11 05:39:25;;;;;;;26.90;18.77;;;3.40;99.90;;;;;;5067468;28;20196;-77
2021/01/11 05:41:52;;;;;;;25.95;20.00;;;3.40;99.90;;;;;;5075362;28;20198;-78
2021/01/11 05:44:18;;;;;;;26.38;17.67;;;3.30;99.90;;;;;;5068713;28;20217;-77
2021/01/11 05:46:46;;;;;;;27.70;19.95;;;3.30;99.90;;;;;;5059685;28;20224;-79
2021/01/11 05:49:13;;;;;;;25.38;19.70;;;3.30;99.90;;;;;;5059419;28;20195;-78
2021/01/11 05:51:40;;;;;;;27.95;21.95;;;3.30;99.90;;;;;;5064685;28;20652;-78
2021/01/11 05:54:24;;;;;;;28.33;20.23;;;3.30;99.90;;;;;;5066613;28;20228;-80
2021/01/11 05:56:56;;;;;;;25.73;19.88;;;3.30;99.90;;;;;;5062952;28;20306;-77
2021/01/11 05:59:23;;;;;;;25.08;19.08;;;3.30;99.90;;;;;;5058893;28;20249;-77
2021/01/11 06:01:49;;;;;;;29.67;18.35;;;3.40;99.90;;;;;;5061006;28;20203;-77
2021/01/11 06:04:16;;;;;;;27.48;19.45;;;3.30;99.90;;;;;;5059405;28;20223;-79
2021/01/11 06:06:42;;;;;;;26.23;17.67;;;3.40;99.90;;;;;;5071410;28;20199;-78
2021/01/11 06:09:09;;;;;;;26.20;18.60;;;3.40;99.90;;;;;;5066308;28;20642;-77
2021/01/11 06:11:37;;;;;;;23.63;18.17;;;3.40;99.90;;;;;;5064928;28;20206;-78
2021/01/11 06:14:05;;;;;;;25.50;19.67;;;3.40;99.90;;;;;;5062339;28;20195;-77
2021/01/11 06:16:32;;;;;;;27.00;20.13;;;3.40;99.90;;;;;;5060825;28;20222;-77
2021/01/11 06:19:00;;;;;;;29.83;18.05;;;3.40;99.90;;;;;;5063850;28;20223;-77
2021/01/11 06:21:26;;;;;;;25.48;18.85;;;3.40;99.90;;;;;;5065869;28;20865;-76
2021/01/11 06:24:17;;;;;;;23.23;17.75;;;3.40;99.90;;;;;;5064076;28;20674;-77
2021/01/11 06:26:44;;;;;;;20.00;17.40;;;3.40;99.90;;;;;;5048321;28;20203;-79
2021/01/11 06:29:31;;;;;;;24.95;17.70;;;3.40;99.90;;;;;;5068328;28;20196;-76
2021/01/11 06:32:16;;;;;;;23.58;16.92;;;3.40;99.90;;;;;;5065952;28;20564;-77
2021/01/11 06:34:43;;;;;;;19.05;15.07;;;3.40;99.90;;;;;;5059889;28;20196;-76
2021/01/11 06:37:17;;;;;;;23.63;16.77;;;3.30;99.90;;;;;;5069893;28;20205;-79
2021/01/11 06:39:45;;;;;;;18.17;15.10;;;3.40;99.90;;;;;;5071818;28;20200;-77
2021/01/11 06:42:12;;;;;;;21.17;15.73;;;3.40;99.90;;;;;;5063616;28;20447;-79
2021/01/11 06:44:41;;;;;;;19.48;14.38;;;3.40;99.90;;;;;;5065456;28;20206;-77
2021/01/11 06:47:09;;;;;;;21.50;15.48;;;3.40;99.90;;;;;;5064077;28;20193;-77
2021/01/11 06:49:37;;;;;;;22.17;15.10;;;3.40;99.90;;;;;;5065501;28;20201;-77
2021/01/11 06:52:05;;;;;;;18.25;14.43;;;3.40;99.90;;;;;;5059735;28;20190;-77
2021/01/11 06:54:41;;;;;;;16.23;14.40;;;3.40;99.90;;;;;;5064754;28;20183;-77
2021/01/11 06:57:16;;;;;;;19.23;14.20;;;3.40;99.90;;;;;;5066779;28;20196;-77
2021/01/11 06:59:47;;;;;;;16.60;13.45;;;3.40;99.90;;;;;;5065397;28;20202;-78
2021/01/11 07:02:19;;;;;;;20.55;13.13;;;3.40;99.90;;;;;;5055606;28;20294;-77
2021/01/11 07:04:46;;;;;;;18.77;14.80;;;3.40;99.90;;;;;;5060625;28;20200;-77
2021/01/11 07:07:21;;;;;;;18.33;15.45;;;3.30;99.90;;;;;;5063648;28;20536;-78
2021/01/11 07:09:52;;;;;;;22.77;17.42;;;3.30;99.90;;;;;;5055069;28;20191;-77
2021/01/11 07:12:20;;;;;;;19.08;13.93;;;3.30;99.90;;;;;;5063059;28;20244;-79
2021/01/11 07:15:06;;;;;;;19.98;14.23;;;3.30;99.90;;;;;;5068734;28;20268;-77
2021/01/11 07:17:37;;;;;;;22.80;15.50;;;3.30;99.90;;;;;;5059517;28;20198;-79
2021/01/11 07:20:05;;;;;;;19.95;15.05;;;3.30;99.90;;;;;;5059518;28;20227;-79
2021/01/11 07:22:32;;;;;;;20.65;15.13;;;3.30;99.90;;;;;;5061971;28;20202;-77
2021/01/11 07:24:58;;;;;;;19.33;15.63;;;3.30;99.90;;;;;;5059074;28;20199;-77
2021/01/11 07:27:24;;;;;;;23.35;15.45;;;3.30;99.90;;;;;;5058760;28;20695;-77
2021/01/11 07:29:56;;;;;;;19.98;15.35;;;3.30;99.90;;;;;;5058016;28;20204;-78
2021/01/11 07:32:23;;;;;;;22.80;15.73;;;3.40;99.90;;;;;;5065457;28;20201;-77
2021/01/11 07:34:50;;;;;;;19.50;14.90;;;3.40;99.90;;;;;;5057370;28;20226;-77
2021/01/11 07:37:16;;;;;;;20.38;14.80;;;3.30;99.90;;;;;;5063432;28;20540;-78
2021/01/11 07:39:43;;;;;;;23.98;17.48;;;3.40;99.90;;;;;;5075748;28;20205;-77
2021/01/11 07:42:10;;;;;;;23.10;15.95;;;3.30;99.90;;;;;;5072785;28;20694;-79
2021/01/11 07:44:37;;;;;;;21.17;16.33;;;3.30;99.90;;;;;;5060444;28;20618;-78
2021/01/11 07:47:06;;;;;;;22.85;16.08;;;3.30;99.90;;;;;;5059518;28;20196;-78
2021/01/11 07:49:35;;;;;;;22.40;16.50;;;3.30;99.90;;;;;;5059345;28;20576;-77
2021/01/11 07:52:03;;;;;;;23.42;16.55;;;3.30;99.90;;;;;;5056707;28;20340;-78
2021/01/11 07:54:30;;;;;;;22.95;17.35;;;3.30;99.90;;;;;;5068275;28;20215;-78
2021/01/11 07:56:57;;;;;;;23.10;16.52;;;3.40;99.90;;;;;;5062839;28;20478;-78
2021/01/11 07:59:23;;;;;;;21.92;16.38;;;3.30;99.90;;;;;;5065283;28;20191;-77
2021/01/11 08:01:50;;;;;;;18.90;14.48;;;3.30;99.90;;;;;;5064871;28;20598;-78
2021/01/11 08:04:20;;;;;;;22.95;14.80;;;3.30;99.90;;;;;;5063564;28;20226;-77
2021/01/11 08:06:57;;;;;;;20.63;13.52;;;3.30;99.90;;;;;;5064390;28;20291;-78
2021/01/11 08:09:25;;;;;;;19.88;12.98;;;3.30;99.90;;;;;;5066005;28;20281;-79
2021/01/11 08:12:05;;;;;;;17.95;15.23;;;3.40;99.90;;;;;;5063369;28;20376;-77
2021/01/11 08:14:31;;;;;;;23.00;15.13;;;3.40;99.90;;;;;;5055313;28;20235;-80
2021/01/11 08:16:58;;;;;;;21.02;15.05;;;3.30;99.90;;;;;;5062108;28;20220;-77
2021/01/11 08:19:25;;;;;;;21.02;14.23;;;3.30;99.90;;;;;;5058067;28;20208;-77
2021/01/11 08:21:58;;;;;;;22.20;14.35;;;3.30;99.90;;;;;;5067025;28;20204;-77
2021/01/11 08:24:24;;;;;;;20.92;13.73;;;3.30;99.90;;;;;;5062508;28;20622;-79
2021/01/11 08:27:00;;;;;;;19.75;14.27;;;3.40;99.90;;;;;;5059193;28;20187;-76
2021/01/11 08:29:29;;;;;;;16.17;11.98;;;3.30;99.90;;;;;;5064855;28;20196;-77
2021/01/11 08:31:55;;;;;;;18.35;13.13;;;3.40;99.90;;;;;;5057945;28;20203;-78
2021/01/11 08:34:21;;;;;;;16.20;12.50;;;3.40;99.90;;;;;;5055701;28;20194;-76
2021/01/11 08:36:48;;;;;;;16.98;12.25;;;3.40;99.90;;;;;;5062858;28;22930;-76
2021/01/11 08:39:16;;;;;;;17.15;13.00;;;3.40;99.90;;;;;;5069321;28;20206;-77
2021/01/11 08:41:47;;;;;;;23.35;14.45;;;3.40;99.90;;;;;;5059326;28;20204;-79
2021/01/11 08:44:31;;;;;;;16.25;12.35;;;3.40;99.90;;;;;;5065865;28;20273;-78
2021/01/11 08:47:03;;;;;;;16.88;12.63;;;3.40;99.90;;;;;;5061841;28;20376;-77
2021/01/11 08:49:30;;;;;;;20.95;13.60;;;3.40;99.90;;;;;;5057810;28;20195;-78
2021/01/11 08:52:06;;;;;;;20.02;13.52;;;3.40;99.90;;;;;;5060198;28;20658;-77
2021/01/11 08:54:34;;;;;;;19.70;13.20;;;3.40;99.90;;;;;;5062069;28;20260;-77
2021/01/11 08:57:13;;;;;;;16.73;11.90;;;3.40;99.90;;;;;;5057337;28;20857;-78
2021/01/11 08:59:50;;;;;;;23.70;14.30;;;3.40;99.90;;;;;;5059572;28;20481;-77
2021/01/11 09:02:24;;;;;;;17.63;12.82;;;3.40;99.90;;;;;;5059165;28;20519;-78
2021/01/11 09:04:50;;;;;;;18.52;13.70;;;3.40;99.90;;;;;;5053370;28;20196;-77
2021/01/11 09:07:25;;;;;;;16.75;11.80;;;3.40;99.90;;;;;;5057834;28;20211;-79
2021/01/11 09:09:52;;;;;;;18.08;13.05;;;3.40;99.90;;;;;;5065528;28;20191;-77
2021/01/11 09:12:28;;;;;;;17.00;12.13;;;3.40;99.90;;;;;;5058861;28;20624;-79
2021/01/11 09:14:55;;;;;;;20.08;14.02;;;3.40;99.90;;;;;;5057197;28;20200;-76
2021/01/11 09:17:26;;;;;;;16.48;12.60;;;3.50;99.90;;;;;;5055176;28;20671;-77
2021/01/11 09:19:53;;;;;;;15.85;12.57;;;3.50;99.90;;;;;;5058494;28;20205;-78
2021/01/11 09:22:29;;;;;;;15.85;11.70;;;3.50;99.90;;;;;;5062956;28;20291;-77
2021/01/11 09:24:57;;;;;;;15.75;11.75;;;3.50;99.90;;;;;;5058434;28;20193;-76
2021/01/11 09:27:23;;;;;;;17.60;13.52;;;3.50;99.90;;;;;;5055033;28;20263;-78
2021/01/11 09:29:51;;;;;;;23.15;14.80;;;3.50;99.90;;;;;;5059013;28;20223;-79
2021/01/11 09:32:17;;;;;;;19.05;12.15;;;3.50;99.90;;;;;;5061485;28;20203;-79
2021/01/11 09:34:44;;;;;;;22.33;14.82;;;3.50;99.90;;;;;;5058129;28;20796;-78
2021/01/11 09:37:12;;;;;;;20.35;13.38;;;3.50;99.90;;;;;;5063077;28;20728;-77
2021/01/11 09:39:38;;;;;;;16.88;11.50;;;3.60;99.90;;;;;;5066995;28;20202;-77
2021/01/11 09:42:06;;;;;;;22.95;13.75;;;3.60;99.90;;;;;;5058479;28;20196;-78
2021/01/11 09:44:32;;;;;;;15.15;11.88;;;3.60;99.90;;;;;;5057188;28;20192;-77
2021/01/11 09:47:00;;;;;;;17.20;12.13;;;3.60;99.90;;;;;;5053914;28;20247;-77
2021/01/11 09:49:27;;;;;;;15.20;11.05;;;3.70;99.90;;;;;;5055007;28;20288;-76
2021/01/11 09:51:54;;;;;;;16.13;12.60;;;3.70;99.90;;;;;;5054834;28;20541;-78
2021/01/11 09:54:21;;;;;;;13.57;10.88;;;3.80;99.90;;;;;;5056724;28;20293;-77
2021/01/11 09:56:48;;;;;;;15.45;11.82;;;3.80;99.90;;;;;;5053681;28;20225;-78
2021/01/11 09:59:16;;;;;;;18.85;11.90;;;3.80;99.90;;;;;;5060193;28;20196;-77
2021/01/11 10:01:44;;;;;;;15.43;11.25;;;3.80;99.90;;;;;;5052136;28;20283;-78
2021/01/11 10:04:12;;;;;;;13.75;10.55;;;3.80;99.90;;;;;;5061082;28;20220;-77
2021/01/11 10:06:42;;;;;;;15.27;11.57;;;3.80;99.90;;;;;;5062275;28;20259;-75
2021/01/11 10:09:10;;;;;;;17.60;12.43;;;3.80;99.90;;;;;;5061927;28;20200;-76
2021/01/11 10:11:36;;;;;;;15.45;11.82;;;3.80;99.90;;;;;;5062608;28;20242;-78
2021/01/11 10:14:03;;;;;;;14.60;9.25;;;3.80;99.90;;;;;;5055680;28;20234;-77
2021/01/11 10:16:30;;;;;;;15.20;12.68;;;3.90;99.90;;;;;;5057253;28;20220;-78
2021/01/11 10:18:56;;;;;;;14.38;10.90;;;3.90;99.90;;;;;;5056866;28;20661;-78
2021/01/11 10:21:23;;;;;;;17.45;12.50;;;3.90;99.90;;;;;;5058912;28;20217;-76
2021/01/11 10:23:49;;;;;;;15.43;11.38;;;3.90;99.90;;;;;;5066069;28;20195;-77
2021/01/11 10:26:17;;;;;;;17.40;11.30;;;3.90;99.90;;;;;;5059780;28;20655;-79
2021/01/11 10:28:44;;;;;;;17.20;11.73;;;3.90;99.90;;;;;;5058231;28;20207;-78
2021/01/11 10:31:10;;;;;;;16.83;12.75;;;4.00;99.90;;;;;;5059570;28;20197;-76
2021/01/11 10:33:37;;;;;;;16.15;12.73;;;4.00;99.90;;;;;;5071386;28;20268;-78
2021/01/11 10:36:05;;;;;;;17.38;12.80;;;4.00;99.90;;;;;;5072274;28;20363;-77
2021/01/11 10:38:31;;;;;;;15.48;11.35;;;4.00;99.90;;;;;;5056913;28;20247;-79
2021/01/11 10:40:57;;;;;;;18.75;12.32;;;4.10;99.90;;;;;;5057729;28;20200;-78
2021/01/11 10:43:25;;;;;;;19.50;13.52;;;4.10;99.90;;;;;;5056403;28;20193;-78
2021/01/11 10:45:51;;;;;;;16.00;11.57;;;4.10;99.90;;;;;;5062106;28;20239;-78
2021/01/11 10:48:18;;;;;;;16.58;11.02;;;4.10;99.90;;;;;;5066570;28;20255;-77
2021/01/11 10:50:45;;;;;;;16.42;12.73;;;4.10;99.90;;;;;;5073854;28;20200;-77
2021/01/11 10:53:12;;;;;;;15.85;12.25;;;4.10;99.90;;;;;;5067176;28;20200;-76
2021/01/11 10:55:38;;;;;;;16.98;13.13;;;4.10;99.90;;;;;;5064093;28;20225;-77
2021/01/11 10:58:04;;;;;;;14.27;12.35;;;4.10;99.90;;;;;;5072475;28;20193;-78
2021/01/11 11:00:31;;;;;;;17.17;11.63;;;4.20;99.90;;;;;;5073636;28;20227;-78
2021/01/11 11:02:57;;;;;;;15.50;10.70;;;4.20;99.90;;;;;;5061455;28;20220;-78
2021/01/11 11:05:23;;;;;;;20.20;13.90;;;4.20;99.90;;;;;;5062004;28;20652;-79
2021/01/11 11:07:52;;;;;;;18.73;13.00;;;4.20;99.90;;;;;;5058905;28;20198;-77
2021/01/11 11:10:19;;;;;;;19.95;13.20;;;4.20;99.90;;;;;;5059567;28;20188;-78
2021/01/11 11:12:45;;;;;;;18.85;12.80;;;4.30;99.90;;;;;;5060211;28;20181;-77
2021/01/11 11:15:13;;;;;;;14.93;11.07;;;4.30;99.90;;;;;;5064057;28;20184;-78
2021/01/11 11:17:39;;;;;;;13.15;10.77;;;4.30;99.90;;;;;;5062306;28;20730;-78
2021/01/11 11:20:07;;;;;;;13.82;10.38;;;4.30;99.90;;;;;;5059558;28;20225;-77
2021/01/11 11:22:33;;;;;;;12.85;10.65;;;4.30;99.90;;;;;;5060844;28;20245;-77
2021/01/11 11:25:05;;;;;;;14.15;10.48;;;4.30;99.90;;;;;;5059070;28;20193;-76
2021/01/11 11:27:32;;;;;;;12.48;10.07;;;4.30;99.90;;;;;;5062395;28;20191;-77
2021/01/11 11:29:59;;;;;;;19.73;11.88;;;4.30;99.90;;;;;;5063062;28;20271;-77
2021/01/11 11:32:25;;;;;;;14.60;11.32;;;4.40;99.90;;;;;;5070147;28;20188;-77
2021/01/11 11:34:51;;;;;;;15.27;11.57;;;4.40;99.90;;;;;;5061166;28;20186;-79
2021/01/11 11:37:18;;;;;;;12.00;9.95;;;4.40;99.90;;;;;;5060320;28;20240;-78
2021/01/11 11:39:45;;;;;;;13.20;11.70;;;4.50;99.90;;;;;;5071063;28;20363;-77
2021/01/11 11:42:12;;;;;;;12.93;9.70;;;4.50;99.90;;;;;;5069710;28;20192;-77
2021/01/11 11:44:38;;;;;;;14.20;10.45;;;4.50;99.90;;;;;;5058648;28;20197;-77
2021/01/11 11:47:04;;;;;;;20.83;11.65;;;4.60;99.90;;;;;;5066382;28;20203;-77
2021/01/11 11:49:31;;;;;;;12.05;9.75;;;4.50;99.90;;;;;;5061254;28;20224;-77
2021/01/11 11:51:57;;;;;;;14.27;10.38;;;4.60;99.90;;;;;;5070516;28;20201;-77
2021/01/11 11:54:23;;;;;;;15.07;10.40;;;4.60;99.90;;;;;;5064275;28;20193;-77
2021/01/11 11:56:49;;;;;;;14.13;10.80;;;4.60;99.90;;;;;;5057813;28;20221;-79
2021/01/11 11:59:17;;;;;;;12.20;9.35;;;4.70;99.90;;;;;;5060382;28;20197;-77
2021/01/11 12:01:43;;;;;;;14.38;10.48;;;4.70;99.90;;;;;;5065259;28;20196;-76
2021/01/11 12:04:09;;;;;;;15.85;12.02;;;4.70;99.90;;;;;;5060688;28;20221;-77
2021/01/11 12:06:40;;;;;;;14.90;10.77;;;4.70;99.90;;;;;;5055047;28;20644;-77
2021/01/11 12:09:07;;;;;;;14.95;10.10;;;4.70;99.90;;;;;;5065875;28;20287;-77
2021/01/11 12:11:49;;;;;;;11.77;10.02;;;4.80;99.90;;;;;;5072140;28;20296;-79
2021/01/11 12:14:17;;;;;;;13.90;9.13;;;4.80;99.90;;;;;;5064385;28;20720;-78
2021/01/11 12:16:48;;;;;;;15.18;10.68;;;4.80;99.90;;;;;;5061672;28;20220;-79
2021/01/11 12:19:14;;;;;;;13.65;11.10;;;4.80;99.90;;;;;;5070035;28;20188;-78
2021/01/11 12:21:40;;;;;;;14.25;11.13;;;4.90;99.90;;;;;;5057134;28;20293;-78
2021/01/11 12:24:09;;;;;;;17.08;11.95;;;4.90;99.90;;;;;;5056332;28;20207;-78
2021/01/11 12:26:40;;;;;;;13.20;9.90;;;4.90;99.90;;;;;;5067483;28;20859;-76
2021/01/11 12:29:07;;;;;;;13.15;11.30;;;4.90;99.90;;;;;;5066125;28;20202;-78
2021/01/11 12:31:34;;;;;;;11.82;9.70;;;4.90;99.90;;;;;;5055949;28;20252;-78
2021/01/11 12:34:01;;;;;;;14.85;10.52;;;4.90;99.90;;;;;;5060332;28;20227;-76
2021/01/11 12:36:29;;;;;;;15.68;9.80;;;5.00;99.90;;;;;;5058086;28;20843;-77
2021/01/11 12:38:57;;;;;;;14.65;10.05;;;5.00;99.90;;;;;;5057225;28;20189;-77
2021/01/11 12:41:25;;;;;;;13.18;9.95;;;5.00;99.90;;;;;;5063961;28;20201;-77
2021/01/11 12:43:52;;;;;;;9.95;8.88;;;5.00;99.90;;;;;;5070536;28;20191;-78
2021/01/11 12:46:20;;;;;;;12.27;9.65;;;5.10;99.90;;;;;;5058331;28;20261;-79